Terminal Aerodrome Forecast
Issued by NWS

Home | Current Version | Previous Version | Text Only | Print | Product List | Glossary On
Versions: 1 2 3 4 5 6 7 8 9 10 11 12 13 14 15 16 17 18 19
000
FTUS46 KLOX 240800 AAA
TAFSBP
TAF AMD
KSBP 240808Z 2408/2506 29003KT 1/4SM FG VV002
     FM241000 VRB03KT 2SM BR OVC003
     FM241400 VRB03KT 4SM BR BKN005
     FM241700 VRB03KT P6SM SCT200
     FM242000 29010KT P6SM SCT200
     FM250300 VRB03KT P6SM BKN012=

USA.gov is the U.S. government's official web portal to all federal, state and local government web resources and services.